Aviation Digital Data Service (ADDS)

Output produced by METARs form (1431 UTC 25 June 2019)
found at http://www.aviationweather.gov/metar/data/
 
Forecast for: ZSPD (SHANGHAI/PUDONG , CN)
Text: TAF ZSPD 250920Z 2512/2612 12005MPS 6000 BKN010 TX26/2606Z TN20/2521Z
Forecast period: 1200 UTC 25 June 2019 to 1200 UTC 26 June 2019
Forecast type: FROM: standard forecast or significant change
Winds: from the ESE (120 degrees) at 12 MPH (10 knots; 5.1 m/s)
Visibility: 4 miles (6 km)
Ceiling: 1000 feet AGL
Clouds: broken clouds at 1000 feet AGL
Weather: no significant weather forecast for this period
Text: TEMPO 2516/2522 TSRA BKN005 SCT030CB OVC033
Forecast period: 1600 to 2200 UTC 25 June 2019
Forecast type: TEMPORARY: The following changes expected for less than half the time period
Visibility: missing
Ceiling: 500 feet AGL
Clouds: broken clouds at 500 feet AGL
scattered clouds at 3000 feet AGL
overcast cloud deck at 3300 feet AGL
Weather: TSRA  (rain associated with thunderstorm(s))